LFKJLIRZ

Guest
Details From LFKJ - Napoleon Bonaparte
To LIRZ - PERUGIA
Flight Number -
Tags generated
Created
Modified
Stats Distance 179 nm / 332 km
Max Altitude 21,400 ft / 6,523 m
Waypoints 3
Social Downloads 1
Likes 0
Share VATSIM

Download

Looking for another format? Having issues loading an existing format? Contact us
Advertisement - Login to hide

Notes

Basic altitude profile: - Ascent Rate: 2500ft/min - Ascent Speed: 250kts - Cruise Altitude: 35000ft - Cruise Speed: 420kts - Descent Rate: 1500ft/min - Descent Speed: 250kts

Route

LFKJ KISTO LIRZ

ID Type Via Altitude Latitude Longitude Leg Dist Tot Dist Heading (true) Name
O LFKJ APT - 0 ft / 0 m 41.92289˚ 8.79959˚ - 0 nm - Napoleon Bonaparte
KISTO FIX - 21,400 ft / 6,523 m 42.33056˚ 10.38306˚ 74 nm 74 nm 70° / 71° -
O LIRZ APT - 0 ft / 0 m 43.09619˚ 12.51332˚ 104 nm 179 nm 63° / 65° PERUGIA

Altitude Profile

Advertisement - Login to hide

Weather


0- 5 10 15 20 25 30 35+ Temperature / ° C

Clouds and Precipitation
Forecast for 2017-12-12 18:00 UTC. Updated an hour ago

Ground ~20,000 ft ~40,000 ft Winds

LFKJ

Details ICAO LFKJ (AJA)
Name Napoleon Bonaparte
Region France
Timezone Europe/Paris (UTC+1.0)
Stats Elevation 18 ft / 5 m (AMSL)
Location 41.922886° 8.799587°
Runways 2
Magnetic Variation 2.329° E

METAR

LFKJ 121600Z AUTO 05001KT 9999 -RA SCT041 OVC052 12/10 Q1014 TEMPO 4000 RA BKN010 FEW025TCU

Decode

TAF

TAF LFKJ 121400Z 1215/1315 VRB05KT 9999 SCT040 OVC060 TEMPO 1215/1224 4000 RA BKN010 FEW025TCU BECMG 1310/1312 30010KT

Decode

Departure Runways

ID Width Length Bearing (true) Bearing (mag) Surface Threshold Offset Overrun Length
02 180 ft / 55 m 7,899 ft / 2,408 m 24.94° 22.61° Asphalt 0 ft / 0 m 164 ft / 50 m
10 98 ft / 30 m 3,447 ft / 1,051 m 94.35° 92.02° Concrete 0 ft / 0 m 164 ft / 50 m
20 180 ft / 55 m 7,899 ft / 2,408 m 204.95° 202.62° Asphalt 745 ft / 227 m 230 ft / 70 m
28 98 ft / 30 m 3,447 ft / 1,051 m 274.36° 272.03° Concrete 213 ft / 65 m 0 ft / 0 m

LIRZ

Details ICAO LIRZ (PEG)
Name PERUGIA
Region Italy
Timezone Europe/Rome (UTC+1.0)
Stats Elevation 693 ft / 211 m (AMSL)
Location 43.096192° 12.513325°
Runways 1
Magnetic Variation 3.104° E

METAR

LIRZ 121550Z 28004KT 7000 BKN020 12/11 Q1013

Decode

TAF

TAF TAF LIRZ 121100Z 1212/1312 20013KT 7000 BKN030 TEMPO 1212/1306 SHRA BECMG 1217/1219 VRB05KT

Decode

Destination Runways

ID Width Length Bearing (true) Bearing (mag) Surface Threshold Offset Overrun Length
01 154 ft / 47 m 5,783 ft / 1,763 m 14.26° 11.16° Asphalt 0 ft / 0 m 328 ft / 100 m
19 154 ft / 47 m 5,783 ft / 1,763 m 194.27° 191.17° Asphalt 85 ft / 26 m 0 ft / 0 m

Approach Navaids

Runway Type Ident Frequency Range Bearing (true) Bearing (mag) Slope Elevation
01 Localiser IPE 110.95 MHz 18 nm / 33 km 14.25° 11.15° - 693 ft / 211 m (AMSL)
01 Glidescope IPE 110.95 MHz 10 nm / 19 km 14.26° 11.16° 3.40° 667 ft / 203 m (AMSL)
01 DME IPE 110.95 MHz 18 nm / 33 km - - - 667 ft / 203 m (AMSL)